createdAt,value
2022-11-24T00:01:26.558Z,31.05
2022-11-24T00:03:59.841Z,35.55
2022-11-24T00:06:28.651Z,25.70
2022-11-24T00:08:57.025Z,32.38
2022-11-24T00:11:28.174Z,25.15
2022-11-24T00:13:56.423Z,21.98
2022-11-24T00:16:32.023Z,29.50
2022-11-24T00:19:01.076Z,38.03
2022-11-24T00:21:31.498Z,23.33
2022-11-24T00:23:59.428Z,28.70
2022-11-24T00:26:35.540Z,20.98
2022-11-24T00:29:06.460Z,32.25
2022-11-24T00:31:37.039Z,30.05
2022-11-24T00:34:11.039Z,29.45
2022-11-24T00:36:39.222Z,22.17
2022-11-24T00:39:10.406Z,25.98
2022-11-24T00:41:37.872Z,29.20
2022-11-24T00:44:05.604Z,28.80
2022-11-24T00:46:33.028Z,34.08
2022-11-24T00:49:00.766Z,32.00
2022-11-24T00:51:30.531Z,31.27
2022-11-24T00:53:59.569Z,28.13
2022-11-24T00:56:28.963Z,31.42
2022-11-24T00:58:57.484Z,27.25
2022-11-24T01:01:28.150Z,28.52
2022-11-24T01:03:56.228Z,32.03
2022-11-24T01:06:26.487Z,26.27
2022-11-24T01:08:57.318Z,29.83
2022-11-24T01:12:01.054Z,28.13
2022-11-24T01:14:29.272Z,25.10
2022-11-24T01:16:57.249Z,22.75
2022-11-24T01:19:24.972Z,24.08
2022-11-24T01:21:52.662Z,22.48
2022-11-24T01:24:20.351Z,20.35
2022-11-24T01:26:47.673Z,20.00
2022-11-24T01:29:15.148Z,22.50
2022-11-24T01:31:43.095Z,22.00
2022-11-24T01:34:10.542Z,17.80
2022-11-24T01:36:37.723Z,19.00
2022-11-24T01:39:05.247Z,21.08
2022-11-24T01:41:34.395Z,20.60
2022-11-24T01:44:03.984Z,20.10
2022-11-24T01:46:38.973Z,22.00
2022-11-24T01:51:47.854Z,25.13
2022-11-24T01:54:22.691Z,20.53
2022-11-24T01:56:53.803Z,21.10
2022-11-24T01:59:22.404Z,22.58
2022-11-24T02:01:52.983Z,20.10
2022-11-24T02:04:24.630Z,19.65
2022-11-24T02:06:53.226Z,21.58
2022-11-24T02:09:26.708Z,24.23
2022-11-24T02:11:55.408Z,22.92
2022-11-24T02:14:24.688Z,22.30
2022-11-24T02:16:53.363Z,22.05
2022-11-24T02:19:39.508Z,23.58
2022-11-24T02:22:30.022Z,21.20
2022-11-24T02:25:28.150Z,22.40
2022-11-24T02:27:57.044Z,24.13
2022-11-24T02:30:24.768Z,19.85
2022-11-24T02:32:53.004Z,20.38
2022-11-24T02:35:20.726Z,21.15
2022-11-24T02:37:47.921Z,24.55
2022-11-24T02:40:17.134Z,19.92
2022-11-24T02:42:47.383Z,25.67
2022-11-24T02:45:16.474Z,22.27
2022-11-24T02:47:44.374Z,22.90
2022-11-24T02:50:12.432Z,24.65
2022-11-24T02:52:39.758Z,24.02
2022-11-24T02:55:07.560Z,25.77
2022-11-24T02:57:35.243Z,24.38
2022-11-24T03:00:02.532Z,24.70
2022-11-24T03:02:32.431Z,25.33
2022-11-24T03:05:00.087Z,25.90
2022-11-24T03:07:27.341Z,27.90
2022-11-24T03:09:54.569Z,30.08
2022-11-24T03:12:21.919Z,25.55
2022-11-24T03:14:49.357Z,28.17
2022-11-24T03:17:16.889Z,28.85
2022-11-24T03:19:44.453Z,25.70
2022-11-24T03:22:13.352Z,28.67
2022-11-24T03:24:40.769Z,25.05
2022-11-24T03:27:08.280Z,24.85
2022-11-24T03:29:35.582Z,27.88
2022-11-24T03:32:03.194Z,27.73
2022-11-24T03:34:30.840Z,30.00
2022-11-24T03:36:58.728Z,27.13
2022-11-24T03:39:26.023Z,27.00
2022-11-24T03:41:53.245Z,28.88
2022-11-24T03:44:20.504Z,28.70
2022-11-24T03:46:47.944Z,35.03
2022-11-24T03:49:15.618Z,29.25
2022-11-24T03:51:42.919Z,28.00
2022-11-24T03:54:13.568Z,29.63
2022-11-24T03:56:40.885Z,31.40
2022-11-24T03:59:08.968Z,31.00
2022-11-24T04:01:36.457Z,30.48
2022-11-24T04:04:03.845Z,25.58
2022-11-24T04:06:31.387Z,26.27
2022-11-24T04:09:01.041Z,28.92
2022-11-24T04:11:46.724Z,29.13
2022-11-24T04:14:14.468Z,31.02
2022-11-24T04:16:42.029Z,31.27
2022-11-24T04:19:09.480Z,27.95
2022-11-24T04:21:36.999Z,25.25
2022-11-24T04:24:04.259Z,30.98
2022-11-24T04:26:31.696Z,33.25
2022-11-24T04:28:58.925Z,27.02
2022-11-24T04:31:26.114Z,26.73
2022-11-24T04:33:54.522Z,28.35
2022-11-24T04:36:21.880Z,27.20
2022-11-24T04:39:19.200Z,30.55
2022-11-24T04:41:37.154Z,28.85
2022-11-24T04:44:05.787Z,27.52
2022-11-24T04:46:34.753Z,27.35
2022-11-24T04:49:02.203Z,25.58
2022-11-24T04:51:31.267Z,28.10
2022-11-24T04:53:59.282Z,33.85
2022-11-24T04:56:27.690Z,29.58
2022-11-24T04:58:55.727Z,30.88
2022-11-24T05:01:23.810Z,34.05
2022-11-24T05:03:58.817Z,29.90
2022-11-24T05:06:27.238Z,34.35
2022-11-24T05:08:54.419Z,33.40
2022-11-24T05:11:23.061Z,30.70
2022-11-24T05:13:50.326Z,37.35
2022-11-24T05:16:17.524Z,35.85
2022-11-24T05:18:45.055Z,34.42
2022-11-24T05:21:13.586Z,33.78
2022-11-24T05:23:42.143Z,31.17
2022-11-24T05:26:10.712Z,35.55
2022-11-24T05:28:37.818Z,27.95
2022-11-24T05:31:05.632Z,35.17
2022-11-24T05:33:33.665Z,33.95
2022-11-24T05:36:02.867Z,34.90
2022-11-24T05:38:31.432Z,30.02
2022-11-24T05:41:03.023Z,36.65
2022-11-24T05:43:30.624Z,31.52
2022-11-24T05:46:02.622Z,34.80
2022-11-24T05:48:29.953Z,35.53
2022-11-24T05:50:58.790Z,34.13
2022-11-24T05:53:27.190Z,36.35
2022-11-24T05:55:54.633Z,26.45
2022-11-24T05:58:21.808Z,25.50
2022-11-24T06:00:49.056Z,28.13
2022-11-24T06:03:16.633Z,34.40
2022-11-24T06:05:47.301Z,35.10
2022-11-24T06:08:15.298Z,31.48
2022-11-24T06:10:43.281Z,29.35
2022-11-24T06:13:10.594Z,27.75
2022-11-24T06:15:41.087Z,28.10
2022-11-24T06:18:08.284Z,28.08
2022-11-24T06:20:35.984Z,32.10
2022-11-24T06:23:03.230Z,26.50
2022-11-24T06:25:30.444Z,28.33
2022-11-24T06:27:58.902Z,27.58
2022-11-24T06:30:25.923Z,27.20
2022-11-24T06:32:57.203Z,28.13
2022-11-24T06:35:24.422Z,23.33
2022-11-24T06:37:51.755Z,27.08
2022-11-24T06:40:19.076Z,23.80
2022-11-24T06:42:51.583Z,31.98
2022-11-24T06:45:19.554Z,24.38
2022-11-24T06:47:46.839Z,27.27
2022-11-24T06:50:14.041Z,23.98
2022-11-24T06:52:41.188Z,27.60
2022-11-24T06:55:09.794Z,29.00
2022-11-24T06:57:37.177Z,28.67
2022-11-24T07:00:06.480Z,26.73
2022-11-24T07:02:34.444Z,29.27
2022-11-24T07:05:01.995Z,28.45
2022-11-24T07:07:31.503Z,29.52
2022-11-24T07:09:58.756Z,25.67
2022-11-24T07:12:25.975Z,26.60
2022-11-24T07:14:55.888Z,28.65
2022-11-24T07:17:23.407Z,28.77
2022-11-24T07:19:50.465Z,28.92
2022-11-24T07:22:17.917Z,28.42
2022-11-24T07:24:44.969Z,31.27
2022-11-24T07:27:12.605Z,25.08
2022-11-24T07:29:39.937Z,29.67
2022-11-24T07:32:07.198Z,27.50
2022-11-24T07:34:35.190Z,28.80
2022-11-24T07:37:02.767Z,31.33
2022-11-24T07:39:29.989Z,27.67
2022-11-24T07:41:59.471Z,25.73
2022-11-24T07:44:27.139Z,24.17
2022-11-24T07:46:54.228Z,23.52
2022-11-24T07:49:21.305Z,25.35
2022-11-24T07:51:48.714Z,26.73
2022-11-24T07:54:15.873Z,25.10
2022-11-24T07:56:43.133Z,25.45
2022-11-24T07:59:10.419Z,30.40
2022-11-24T08:01:37.627Z,23.88
2022-11-24T08:04:05.124Z,30.10
2022-11-24T08:06:40.691Z,28.38
2022-11-24T08:09:10.422Z,26.48
2022-11-24T08:11:40.035Z,24.70
2022-11-24T08:14:07.213Z,26.50
2022-11-24T08:16:34.452Z,26.90
2022-11-24T08:19:01.928Z,25.85
2022-11-24T08:21:29.332Z,35.40
2022-11-24T08:23:57.948Z,27.30
2022-11-24T08:26:26.238Z,27.83
2022-11-24T08:28:56.617Z,28.88
2022-11-24T08:31:26.267Z,26.38
2022-11-24T08:33:56.865Z,26.65
2022-11-24T08:36:24.387Z,27.50
2022-11-24T08:38:59.861Z,25.08
2022-11-24T08:41:28.467Z,26.90
2022-11-24T08:43:55.975Z,29.25
2022-11-24T08:46:24.035Z,27.13
2022-11-24T08:48:53.391Z,22.73
2022-11-24T08:51:26.526Z,25.85
2022-11-24T08:54:01.691Z,22.25
2022-11-24T08:56:31.339Z,24.10
2022-11-24T08:58:59.014Z,25.20
2022-11-24T09:01:27.491Z,25.17
2022-11-24T09:03:55.282Z,25.48
2022-11-24T09:06:25.278Z,26.25
2022-11-24T09:08:55.940Z,25.58
2022-11-24T09:11:25.340Z,22.02
2022-11-24T09:13:54.537Z,28.60
2022-11-24T09:16:27.898Z,27.67
2022-11-24T09:19:08.388Z,23.83
2022-11-24T09:21:38.867Z,25.90
2022-11-24T09:24:08.679Z,28.27
2022-11-24T09:26:38.982Z,23.45
2022-11-24T09:29:08.742Z,20.25
2022-11-24T09:31:37.764Z,21.67
2022-11-24T09:34:07.352Z,23.83
2022-11-24T09:36:35.022Z,24.10
2022-11-24T09:39:02.316Z,24.35
2022-11-24T09:41:38.851Z,22.98
2022-11-24T09:44:32.911Z,25.02
2022-11-24T09:47:23.530Z,27.23
2022-11-24T09:50:00.880Z,24.83
2022-11-24T09:52:48.962Z,20.50
2022-11-24T09:55:59.806Z,21.38
2022-11-24T09:58:43.465Z,27.35
2022-11-24T10:01:26.473Z,21.30
2022-11-24T10:03:54.825Z,22.75
2022-11-24T10:06:24.979Z,22.08
2022-11-24T10:09:07.698Z,21.27
2022-11-24T10:12:09.724Z,18.27
2022-11-24T10:15:01.768Z,25.08
2022-11-24T10:17:50.480Z,19.88
2022-11-24T10:20:17.631Z,24.13
2022-11-24T10:22:54.459Z,23.77
2022-11-24T10:25:27.133Z,21.88
2022-11-24T10:28:15.557Z,21.30
2022-11-24T10:30:43.131Z,22.27
2022-11-24T10:33:18.793Z,25.60
2022-11-24T10:35:55.756Z,19.40
2022-11-24T10:38:39.438Z,18.55
2022-11-24T10:41:14.944Z,20.70
2022-11-24T10:43:45.341Z,19.25
2022-11-24T10:46:19.285Z,20.40
2022-11-24T10:49:05.692Z,22.20
2022-11-24T10:52:05.909Z,23.70
2022-11-24T10:54:37.052Z,17.63
2022-11-24T10:57:04.544Z,19.92
2022-11-24T10:59:38.993Z,22.50
2022-11-24T11:02:36.630Z,19.90
2022-11-24T11:05:26.610Z,19.27
2022-11-24T11:08:26.321Z,23.55
2022-11-24T11:11:27.689Z,22.00
2022-11-24T11:14:04.777Z,21.15
2022-11-24T11:16:51.020Z,21.20
2022-11-24T11:19:53.153Z,22.05
2022-11-24T11:22:32.691Z,22.77
2022-11-24T11:25:05.903Z,16.63
2022-11-24T11:27:33.624Z,21.80
2022-11-24T11:36:17.479Z,23.45
2022-11-24T11:38:47.361Z,23.55
2022-11-24T11:41:20.814Z,22.73
2022-11-24T11:43:54.917Z,21.50
2022-11-24T11:46:23.524Z,23.33
2022-11-24T11:48:52.225Z,25.60
2022-11-24T11:51:47.980Z,27.23
2022-11-24T11:54:55.798Z,20.38
2022-11-24T11:57:31.984Z,20.75
2022-11-24T12:00:15.813Z,22.65
2022-11-24T12:03:20.573Z,22.50
2022-11-24T12:05:56.901Z,20.75
2022-11-24T12:08:49.443Z,22.23
2022-11-24T12:11:43.658Z,22.20
2022-11-24T12:14:52.949Z,23.95
2022-11-24T12:17:32.730Z,25.60
2022-11-24T12:20:24.464Z,22.48
2022-11-24T12:23:11.559Z,25.55
2022-11-24T12:25:57.201Z,21.58
2022-11-24T12:28:51.647Z,22.95
2022-11-24T12:31:42.551Z,23.38
2022-11-24T12:34:29.573Z,20.48
2022-11-24T12:37:38.526Z,24.05
2022-11-24T12:40:16.501Z,25.27
2022-11-24T12:43:02.823Z,26.90
2022-11-24T12:45:45.204Z,29.40
2022-11-24T12:48:29.042Z,22.13
2022-11-24T12:50:58.821Z,25.73
2022-11-24T12:53:31.195Z,24.75
2022-11-24T12:56:12.453Z,23.95
2022-11-24T12:58:51.832Z,22.83
2022-11-24T13:01:29.739Z,22.95
2022-11-24T13:04:00.119Z,22.83
2022-11-24T13:06:59.272Z,23.35
2022-11-24T13:09:26.633Z,28.70
2022-11-24T13:12:06.275Z,23.08
2022-11-24T13:14:38.101Z,27.02
2022-11-24T13:17:36.368Z,18.80
2022-11-24T13:20:26.518Z,20.63
2022-11-24T13:23:00.239Z,24.55
2022-11-24T13:25:35.568Z,25.35
2022-11-24T13:28:06.920Z,23.25
2022-11-24T13:30:37.172Z,26.27
2022-11-24T13:33:16.759Z,20.95
2022-11-24T13:36:23.190Z,23.88
2022-11-24T13:38:54.706Z,21.25
2022-11-24T13:41:34.535Z,23.52
2022-11-24T13:44:14.016Z,25.70
2022-11-24T13:47:06.679Z,25.13
2022-11-24T13:49:43.189Z,26.10
2022-11-24T13:52:38.285Z,29.40
2022-11-24T13:55:11.994Z,21.92
2022-11-24T13:57:45.432Z,25.85
2022-11-24T14:00:20.596Z,20.30
2022-11-24T14:02:49.477Z,26.80
2022-11-24T14:05:19.258Z,27.75
2022-11-24T14:07:50.041Z,24.13
2022-11-24T14:10:20.564Z,26.35
2022-11-24T14:12:48.199Z,25.20
2022-11-24T14:15:30.178Z,26.15
2022-11-24T14:17:57.337Z,23.30
2022-11-24T14:20:27.389Z,23.95
2022-11-24T14:22:54.712Z,26.92
2022-11-24T14:25:35.380Z,24.25
2022-11-24T14:28:03.015Z,25.40
2022-11-24T14:30:31.067Z,25.25
2022-11-24T14:33:00.420Z,24.73
2022-11-24T14:35:32.482Z,26.55
2022-11-24T14:38:02.418Z,24.75
2022-11-24T14:40:59.593Z,27.60
2022-11-24T14:43:32.081Z,24.50
2022-11-24T14:46:02.033Z,24.77
2022-11-24T14:48:32.850Z,23.48
2022-11-24T14:51:22.699Z,23.48
2022-11-24T14:53:54.160Z,22.75
2022-11-24T14:56:25.893Z,24.52
2022-11-24T14:58:54.357Z,23.63
2022-11-24T15:01:27.478Z,33.33
2022-11-24T15:04:32.487Z,22.90
2022-11-24T15:07:11.706Z,26.08
2022-11-24T15:09:50.503Z,24.42
2022-11-24T15:12:29.018Z,30.15
2022-11-24T15:15:01.628Z,23.15
2022-11-24T15:17:30.565Z,24.98
2022-11-24T15:20:20.690Z,25.85
2022-11-24T15:22:48.020Z,30.30
2022-11-24T15:25:42.114Z,26.20
2022-11-24T15:28:09.566Z,26.02
2022-11-24T15:30:37.818Z,24.52
2022-11-24T15:33:14.779Z,26.63
2022-11-24T15:35:42.357Z,28.50
2022-11-24T15:38:10.016Z,26.95
2022-11-24T15:40:42.232Z,25.88
2022-11-24T15:43:23.663Z,27.70
2022-11-24T15:45:51.347Z,28.80
2022-11-24T15:48:18.614Z,23.73
2022-11-24T15:50:48.066Z,23.40
2022-11-24T15:53:36.356Z,22.17
2022-11-24T15:56:06.185Z,27.52
2022-11-24T15:58:33.388Z,22.85
2022-11-24T16:01:00.775Z,27.67
2022-11-24T16:06:25.351Z,26.40
2022-11-24T16:08:54.070Z,25.35
2022-11-24T16:11:21.764Z,28.05
2022-11-24T16:13:52.960Z,24.48
2022-11-24T16:16:23.119Z,29.65
2022-11-24T16:18:50.962Z,28.98
2022-11-24T16:21:18.238Z,26.42
2022-11-24T16:23:46.361Z,24.88
2022-11-24T16:26:15.495Z,25.88
2022-11-24T16:28:45.346Z,29.52
2022-11-24T16:31:16.115Z,29.08
2022-11-24T16:33:45.825Z,28.25
2022-11-24T16:36:14.344Z,29.27
2022-11-24T16:38:41.578Z,28.27
2022-11-24T16:41:10.564Z,33.47
2022-11-24T16:43:38.206Z,30.13
2022-11-24T16:46:17.704Z,29.63
2022-11-24T16:48:53.141Z,29.10
2022-11-24T16:51:22.580Z,30.85
2022-11-24T16:53:58.006Z,27.15
2022-11-24T16:56:26.225Z,29.85
2022-11-24T16:58:53.965Z,30.52
2022-11-24T17:01:21.544Z,26.13
2022-11-24T17:03:48.933Z,27.92
2022-11-24T17:06:17.113Z,29.25
2022-11-24T17:08:46.430Z,30.20
2022-11-24T17:11:15.977Z,32.28
2022-11-24T17:13:44.155Z,28.90
2022-11-24T17:16:14.670Z,29.15
2022-11-24T17:18:42.686Z,23.75
2022-11-24T17:21:16.414Z,30.75
2022-11-24T17:23:44.336Z,32.28
2022-11-24T17:26:16.238Z,30.13
2022-11-24T17:28:44.321Z,30.50
2022-11-24T17:31:23.172Z,28.33
2022-11-24T17:33:51.756Z,27.27
2022-11-24T17:36:19.748Z,32.90
2022-11-24T17:38:49.527Z,29.27
2022-11-24T17:41:18.704Z,27.77
2022-11-24T17:43:50.392Z,28.38
2022-11-24T17:46:17.847Z,25.05
2022-11-24T17:48:46.682Z,29.48
2022-11-24T17:51:16.467Z,32.70
2022-11-24T17:53:46.929Z,27.23
2022-11-24T17:56:17.039Z,26.25
2022-11-24T17:58:44.569Z,23.48
2022-11-24T18:01:13.533Z,23.05
2022-11-24T18:03:41.913Z,26.88
2022-11-24T18:06:14.696Z,26.20
2022-11-24T18:08:47.210Z,27.08
2022-11-24T18:11:27.291Z,28.90
2022-11-24T18:14:01.215Z,24.77
2022-11-24T18:16:31.251Z,22.23
2022-11-24T18:19:08.869Z,25.73
2022-11-24T18:21:41.128Z,26.02
2022-11-24T18:24:09.803Z,21.52
2022-11-24T18:26:37.354Z,23.15
2022-11-24T18:29:04.957Z,24.92
2022-11-24T18:31:34.430Z,26.58
2022-11-24T18:34:02.715Z,29.90
2022-11-24T18:36:30.934Z,23.65
2022-11-24T18:39:10.831Z,33.67
2022-11-24T18:41:39.832Z,24.10
2022-11-24T18:44:08.706Z,26.00
2022-11-24T18:46:36.580Z,26.55
2022-11-24T18:49:04.246Z,25.63
2022-11-24T18:51:31.772Z,23.05
2022-11-24T18:53:59.220Z,26.30
2022-11-24T18:56:28.435Z,23.75
2022-11-24T18:58:56.755Z,24.05
2022-11-24T19:01:27.147Z,25.50
2022-11-24T19:04:15.546Z,22.20
2022-11-24T19:06:42.987Z,26.23
2022-11-24T19:09:16.460Z,22.85
2022-11-24T19:11:45.576Z,25.63
2022-11-24T19:14:15.852Z,23.30
2022-11-24T19:16:43.461Z,24.42
2022-11-24T19:19:12.560Z,26.33
2022-11-24T19:21:40.956Z,23.30
2022-11-24T19:24:13.325Z,24.52
2022-11-24T19:26:41.243Z,23.63
2022-11-24T19:29:08.984Z,28.23
2022-11-24T19:31:38.461Z,25.25
2022-11-24T19:34:08.447Z,22.85
2022-11-24T19:36:36.614Z,24.35
2022-11-24T19:39:05.740Z,21.92
2022-11-24T19:41:33.932Z,22.15
2022-11-24T19:44:01.653Z,23.92
2022-11-24T19:46:30.337Z,24.05
2022-11-24T19:49:00.988Z,22.40
2022-11-24T19:51:32.260Z,25.70
2022-11-24T19:54:00.838Z,27.60
2022-11-24T19:56:30.234Z,21.80
2022-11-24T19:58:58.283Z,23.92
2022-11-24T20:01:40.260Z,22.80
2022-11-24T20:04:10.904Z,22.15
2022-11-24T20:06:40.804Z,23.52
2022-11-24T20:09:10.436Z,23.33
2022-11-24T20:11:38.568Z,25.60
2022-11-24T20:14:07.313Z,23.90
2022-11-24T20:16:35.384Z,23.55
2022-11-24T20:19:08.126Z,22.90
2022-11-24T20:21:38.857Z,26.48
2022-11-24T20:24:19.098Z,25.00
2022-11-24T20:26:49.775Z,24.25
2022-11-24T20:29:20.172Z,23.90
2022-11-24T20:31:50.607Z,24.23
2022-11-24T20:34:18.361Z,25.80
2022-11-24T20:36:51.168Z,22.27
2022-11-24T20:39:29.027Z,24.38
2022-11-24T20:41:56.983Z,25.48
2022-11-24T20:44:26.894Z,22.67
2022-11-24T20:46:56.034Z,20.77
2022-11-24T20:49:23.339Z,24.35
2022-11-24T20:51:54.621Z,23.52
2022-11-24T20:54:22.279Z,23.17
2022-11-24T20:56:49.510Z,23.17
2022-11-24T20:59:21.557Z,20.95
2022-11-24T21:01:50.230Z,21.92
2022-11-24T21:04:20.490Z,24.92
2022-11-24T21:06:47.972Z,18.35
2022-11-24T21:09:15.731Z,20.80
2022-11-24T21:11:43.395Z,20.25
2022-11-24T21:14:11.370Z,20.10
2022-11-24T21:16:40.933Z,20.25
2022-11-24T21:19:11.934Z,19.73
2022-11-24T21:21:41.198Z,18.55
2022-11-24T21:24:17.085Z,19.05
2022-11-24T21:26:48.202Z,21.75
2022-11-24T21:29:19.124Z,18.23
2022-11-24T21:31:46.704Z,18.70
2022-11-24T21:34:15.937Z,18.25
2022-11-24T21:36:45.238Z,20.42
2022-11-24T21:39:15.918Z,18.48
2022-11-24T21:41:43.989Z,17.17
2022-11-24T21:44:13.173Z,17.15
2022-11-24T21:46:46.099Z,17.23
2022-11-24T21:49:17.051Z,16.55
2022-11-24T21:51:44.163Z,18.25
2022-11-24T21:54:11.314Z,19.38
2022-11-24T21:56:38.629Z,17.45
2022-11-24T21:59:05.800Z,17.65
2022-11-24T22:01:32.837Z,17.15
2022-11-24T22:04:00.249Z,18.83
2022-11-24T22:06:27.516Z,17.50
2022-11-24T22:08:55.295Z,16.20
2022-11-24T22:11:25.346Z,16.15
2022-11-24T22:13:53.811Z,17.98
2022-11-24T22:16:22.967Z,14.75
2022-11-24T22:18:50.897Z,14.88
2022-11-24T22:21:30.712Z,14.95
2022-11-24T22:23:58.102Z,15.88
2022-11-24T22:26:26.866Z,16.52
2022-11-24T22:28:56.119Z,14.10
2022-11-24T22:31:25.873Z,14.60
2022-11-24T22:33:54.369Z,14.93
2022-11-24T22:36:22.703Z,14.15
2022-11-24T22:38:54.866Z,14.50
2022-11-24T22:41:22.511Z,13.77
2022-11-24T22:43:50.090Z,14.52
2022-11-24T22:46:24.944Z,14.10
2022-11-24T22:48:53.557Z,13.98
2022-11-24T22:51:33.186Z,12.68
2022-11-24T22:54:04.185Z,12.10
2022-11-24T22:56:32.665Z,14.52
2022-11-24T22:59:00.858Z,14.52
2022-11-24T23:01:29.232Z,13.80
2022-11-24T23:03:56.992Z,12.18
2022-11-24T23:06:26.654Z,15.85
2022-11-24T23:08:58.256Z,13.80
2022-11-24T23:11:37.478Z,11.32
2022-11-24T23:17:01.035Z,10.65
2022-11-24T23:19:29.436Z,11.55
2022-11-24T23:21:56.686Z,14.07
2022-11-24T23:24:23.708Z,10.57
2022-11-24T23:26:50.955Z,10.32
2022-11-24T23:29:18.220Z,12.20
2022-11-24T23:31:45.316Z,9.75
2022-11-24T23:34:12.468Z,8.23
2022-11-24T23:36:39.747Z,8.55
2022-11-24T23:39:11.000Z,11.65
2022-11-24T23:41:38.471Z,9.15
2022-11-24T23:44:06.147Z,11.63
2022-11-24T23:46:33.746Z,9.18
2022-11-24T23:49:00.997Z,10.02
2022-11-24T23:51:33.068Z,9.10
2022-11-24T23:54:01.887Z,7.80
2022-11-24T23:56:32.953Z,8.23
2022-11-24T23:59:02.994Z,10.73
